Terminal Aerodrome Forecast
Issued by NWS

Home | Current Version | Previous Version | Text Only | Print | Product List | Glossary On
Versions: 1 2 3 4 5 6 7 8 9 10 11 12 13 14 15 16 17 18 19
000
FTUS41 KBGM 250853 AAA
TAFRME
TAF AMD
KRME 250853Z 2509/2606 11009KT P6SM OVC100 WS020/12042KT
      TEMPO 2512/2515 -RA OVC040
     FM251500 11014KT P6SM -RA OVC040
     FM251700 10014G22KT 5SM -RA BR OVC025
     FM252200 10010KT P6SM OVC015=

USA.gov is the U.S. government's official web portal to all federal, state and local government web resources and services.